Shinglehouse, Pennsylvania
Current Conditions -  °F | °C
As of 9:56 AM on Thursday 30 Oct 2014 (Local Time) from KELZ Reporting Station
Overcast Overcast  
Wind Chill: 33°   Ceiling: 1500
Heat Index: 40°   Visibility: 10mi
Dew Point: 35°   Wind: 13mph
Humidity: 83%   Direction: 320°NW
Pressure: 30.05"   Gusts: NA
Location:  41.96°N, 78.19°W
Report Text: KELZ 301356Z AUTO 32011KT 10SM BKN015 OVC021 04/02 A3005 RMK AO2 SLP186 T00440017
Loading
Personal Weather Stations






























Interactive Weather Map
Tropical Storm Tracking
New forecast layout! Learn more

10-Day Weather Forecast

Advertisements
Track Severe Weather on mobile